sensor_id;sensor_type;location;lat;lon;timestamp;pressure;altitude;pressure_sealevel;temperature;humidity
46382;BME280;66809;52.974;-2.514;2023-03-13T00:01:43;982.676534206672;;;8.643925881801891;49.00525094179416
46382;BME280;66809;52.974;-2.514;2023-03-13T00:03:40;982.6387392961423;;;8.66488320925293;48.97059675372896
46382;BME280;66809;52.974;-2.514;2023-03-13T00:05:40;982.6002548910282;;;8.69327524776124;48.94067680370988
46382;BME280;66809;52.974;-2.514;2023-03-13T00:07:41;982.5638587413067;;;8.713763063008617;48.91803323711883
46382;BME280;66809;52.974;-2.514;2023-03-13T00:09:40;982.5307413280882;;;8.738256609274002;48.8983062146335
46382;BME280;66809;52.974;-2.514;2023-03-13T00:11:41;982.5005396609984;;;8.74450121248269;48.87787689502363
46382;BME280;66809;52.974;-2.514;2023-03-13T00:13:41;982.4723406752089;;;8.772403963492344;48.85764457365328
46382;BME280;66809;52.974;-2.514;2023-03-13T00:15:41;982.4455072099314;;;8.794418955340893;48.84207953438535
46382;BME280;66809;52.974;-2.514;2023-03-13T00:17:40;982.4205072740966;;;8.80319352441984;48.83359704259262
46382;BME280;66809;52.974;-2.514;2023-03-13T00:19:40;982.3961605835179;;;8.823442129871568;48.836181563136456
46382;BME280;66809;52.974;-2.514;2023-03-13T00:21:41;982.3736093657569;;;8.830528898347014;48.848856141264626
46382;BME280;66809;52.974;-2.514;2023-03-13T00:23:40;982.3541752003825;;;8.84473652806086;48.86072211506897
46382;BME280;66809;52.974;-2.514;2023-03-13T00:25:40;982.3360442188998;;;8.8581543770244;48.87598861253132
46382;BME280;66809;52.974;-2.514;2023-03-13T00:27:41;982.3159980073342;;;8.861124207801858;48.895628652214306
46382;BME280;66809;52.974;-2.514;2023-03-13T00:29:40;982.2948690378925;;;8.87050815052148;48.91111204423791
46382;BME280;66809;52.974;-2.514;2023-03-13T00:31:40;982.2743992473174;;;8.882382018913233;48.9268132783072
46382;BME280;66809;52.974;-2.514;2023-03-13T00:33:42;982.252464149908;;;8.885323671901745;48.94977748713269
46382;BME280;66809;52.974;-2.514;2023-03-13T00:35:40;982.2316511914679;;;8.882024687434866;48.969996702666315
46382;BME280;66809;52.974;-2.514;2023-03-13T00:37:40;982.2090736280728;;;8.891302376558144;48.9872225605687
46382;BME280;66809;52.974;-2.514;2023-03-13T00:39:40;982.1835924670377;;;8.897733799431228;48.998237546047655
46382;BME280;66809;52.974;-2.514;2023-03-13T00:41:40;982.1550086181879;;;8.907280357688101;49.010205769573034
46382;BME280;66809;52.974;-2.514;2023-03-13T00:43:42;982.1240050695758;;;8.915759875051203;49.02488853255888
46382;BME280;66809;52.974;-2.514;2023-03-13T00:45:40;982.0903587497814;;;8.918838943982314;49.03761370160526
46382;BME280;66809;52.974;-2.514;2023-03-13T00:47:40;982.0560904940199;;;8.932424850913783;49.049864933635064
46382;BME280;66809;52.974;-2.514;2023-03-13T00:49:40;982.0243189369913;;;8.940333046248634;49.06687871912797
46382;BME280;66809;52.974;-2.514;2023-03-13T00:51:41;981.9887391780892;;;8.950692619212377;49.08522985397539
46382;BME280;66809;52.974;-2.514;2023-03-13T00:53:40;981.9547146208859;;;8.952158527059582;49.09861878467338
46382;BME280;66809;52.974;-2.514;2023-03-13T00:55:50;981.9208088971831;;;8.951675191250702;49.114713213232065
46382;BME280;66809;52.974;-2.514;2023-03-13T00:57:40;981.8861880336412;;;8.967049706640863;49.137191743119196
46382;BME280;66809;52.974;-2.514;2023-03-13T00:59:40;981.8487924820516;;;8.978514362462564;49.160903328119204
46382;BME280;66809;52.974;-2.514;2023-03-13T01:01:40;981.8090783690077;;;8.988797308359382;49.19083175615672
46382;BME280;66809;52.974;-2.514;2023-03-13T01:03:41;981.769455740426;;;8.989971585765595;49.23232463063937
46382;BME280;66809;52.974;-2.514;2023-03-13T01:05:40;981.7286650555252;;;8.987215749914588;49.271878108231974
46382;BME280;66809;52.974;-2.514;2023-03-13T01:07:40;981.6844038217847;;;8.996563118748863;49.30785146173909
46382;BME280;66809;52.974;-2.514;2023-03-13T01:09:40;981.637024041442;;;8.997672174254525;49.3397452426415
46382;BME280;66809;52.974;-2.514;2023-03-13T01:11:42;981.5836820347007;;;8.99996590295262;49.367265328830236
46382;BME280;66809;52.974;-2.514;2023-03-13T01:13:41;981.5269198129603;;;9.001486653811122;49.399164937606855
46382;BME280;66809;52.974;-2.514;2023-03-13T01:15:40;981.4657335493479;;;9.00189834873404;49.43163410520932
46382;BME280;66809;52.974;-2.514;2023-03-13T01:17:42;981.3966353084419;;;9.003452706554828;49.45738852035772
46382;BME280;66809;52.974;-2.514;2023-03-13T01:19:40;981.3208887185475;;;9.003009394913185;49.4720634697035
46382;BME280;66809;52.974;-2.514;2023-03-13T01:21:41;981.2462685780215;;;8.998523781275171;49.47827943678288
46382;BME280;66809;52.974;-2.514;2023-03-13T01:23:40;981.1773775750718;;;9.00506048156413;49.49317593953853
46382;BME280;66809;52.974;-2.514;2023-03-13T01:25:40;981.1075074649353;;;9.007700675043877;49.501067288898156
46382;BME280;66809;52.974;-2.514;2023-03-13T01:27:41;981.039450114643;;;9.014808705663881;49.510028277238014
46382;BME280;66809;52.974;-2.514;2023-03-13T01:29:40;980.9704806517253;;;9.016331442173247;49.5169313834617
46382;BME280;66809;52.974;-2.514;2023-03-13T01:31:40;980.9015555914834;;;9.017232435138755;49.52061161136237
46382;BME280;66809;52.974;-2.514;2023-03-13T01:33:41;980.8329836626792;;;9.026264505197101;49.51800336943008
46382;BME280;66809;52.974;-2.514;2023-03-13T01:35:41;980.7642783384591;;;9.038060813116651;49.51679385509376
46382;BME280;66809;52.974;-2.514;2023-03-13T01:37:40;980.6961615964669;;;9.03929147809558;49.516543024779594
46382;BME280;66809;52.974;-2.514;2023-03-13T01:39:41;980.6285265738175;;;9.04703806107572;49.52063877084677
46382;BME280;66809;52.974;-2.514;2023-03-13T01:41:40;980.5609301424176;;;9.047964265479825;49.52792450813998
46382;BME280;66809;52.974;-2.514;2023-03-13T01:43:40;980.4952851021903;;;9.052862592837888;49.53217827146327
46382;BME280;66809;52.974;-2.514;2023-03-13T01:46:15;980.4311420794012;;;9.060439145154598;49.54361809357292
46382;BME280;66809;52.974;-2.514;2023-03-13T01:47:41;980.3662379312528;;;9.050780904549827;49.553753239480585
46382;BME280;66809;52.974;-2.514;2023-03-13T01:49:40;980.3017613930361;;;9.053929638186073;49.56347957060886
46382;BME280;66809;52.974;-2.514;2023-03-13T01:51:43;980.2385131225088;;;9.052576927011339;49.57457354752039
46382;BME280;66809;52.974;-2.514;2023-03-13T01:53:44;980.1713334917093;;;9.050804119214552;49.58468786939328
46382;BME280;66809;52.974;-2.514;2023-03-13T01:55:41;980.1061658663318;;;9.04744334636511;49.59790121810031
46382;BME280;66809;52.974;-2.514;2023-03-13T01:57:42;980.0402438516448;;;9.04462029743342;49.60741649848492
46382;BME280;66809;52.974;-2.514;2023-03-13T01:59:43;979.9778805583579;;;9.036245562520799;49.61857855854708
46382;BME280;66809;52.974;-2.514;2023-03-13T02:01:40;979.9202754111541;;;9.03093554239938;49.63244765362565
46382;BME280;66809;52.974;-2.514;2023-03-13T02:03:41;979.8641974422625;;;9.028062081785437;49.64128002784109
46382;BME280;66809;52.974;-2.514;2023-03-13T02:05:41;979.811139625917;;;9.025860775041137;49.64749017399739
46382;BME280;66809;52.974;-2.514;2023-03-13T02:07:43;979.7617733605091;;;9.014900234521583;49.65010366663987
46382;BME280;66809;52.974;-2.514;2023-03-13T02:09:43;979.7150406223194;;;9.018309427491667;49.65379057571317
46382;BME280;66809;52.974;-2.514;2023-03-13T02:11:47;979.6729968550836;;;9.018502672160514;49.654377900551886
46382;BME280;66809;52.974;-2.514;2023-03-13T02:13:41;979.6359817298379;;;9.01889756339568;49.65126314637884
46382;BME280;66809;52.974;-2.514;2023-03-13T02:15:41;979.6014692421218;;;9.019748156227722;49.637879358879985
46382;BME280;66809;52.974;-2.514;2023-03-13T02:17:40;979.5730961372822;;;9.027755207936194;49.62306194651562
46382;BME280;66809;52.974;-2.514;2023-03-13T02:19:44;979.5503313641865;;;9.031260815873077;49.6073698277338
46382;BME280;66809;52.974;-2.514;2023-03-13T02:21:42;979.5239697469638;;;9.046376877613328;49.58964264128578
46382;BME280;66809;52.974;-2.514;2023-03-13T02:23:47;979.4918596402117;;;9.05210900023033;49.56618035327379
46382;BME280;66809;52.974;-2.514;2023-03-13T02:25:42;979.4577584042692;;;9.062458194513487;49.55630878669218
46382;BME280;66809;52.974;-2.514;2023-03-13T02:27:42;979.4221193989754;;;9.068759649037501;49.54264404634954
46382;BME280;66809;52.974;-2.514;2023-03-13T02:29:40;979.3878511082675;;;9.072929006842346;49.52404004113875
46382;BME280;66809;52.974;-2.514;2023-03-13T02:31:40;979.3534614184563;;;9.07910642808572;49.50341631928065
46382;BME280;66809;52.974;-2.514;2023-03-13T02:33:42;979.3224330529414;;;9.084082374346092;49.484724596656314
46382;BME280;66809;52.974;-2.514;2023-03-13T02:35:42;979.2880077360267;;;9.088905089845152;49.46519024065405
46382;BME280;66809;52.974;-2.514;2023-03-13T02:37:41;979.2519025549465;;;9.088587814910282;49.450132779012364
46382;BME280;66809;52.974;-2.514;2023-03-13T02:39:43;979.217052854098;;;9.096351214464102;49.431508290261746
46382;BME280;66809;52.974;-2.514;2023-03-13T02:41:41;979.1822276446441;;;9.108181159169655;49.40717947113274
46382;BME280;66809;52.974;-2.514;2023-03-13T02:43:40;979.1505386851829;;;9.112680204894717;49.3836549708553
46382;BME280;66809;52.974;-2.514;2023-03-13T02:45:41;979.1217219774512;;;9.1294336931661;49.35538670534027
46382;BME280;66809;52.974;-2.514;2023-03-13T02:47:40;979.0929740602412;;;9.148136433340559;49.32353231907461
46382;BME280;66809;52.974;-2.514;2023-03-13T02:49:40;979.0641882055986;;;9.161808402240501;49.29304126996708
46382;BME280;66809;52.974;-2.514;2023-03-13T02:51:44;979.0354003841657;;;9.178410647581448;49.26184751010592
46382;BME280;66809;52.974;-2.514;2023-03-13T02:53:41;979.0117198515838;;;9.193643373376165;49.23385572957828
46382;BME280;66809;52.974;-2.514;2023-03-13T02:55:41;978.9896106150682;;;9.212774605207404;49.19996111848479
46382;BME280;66809;52.974;-2.514;2023-03-13T02:57:41;978.968097602835;;;9.228799118060737;49.165791239893586
46382;BME280;66809;52.974;-2.514;2023-03-13T02:59:40;978.9463290953123;;;9.242445871948801;49.13023081761721
46382;BME280;66809;52.974;-2.514;2023-03-13T03:01:40;978.9257302528018;;;9.260232782360836;49.0973017029086
46382;BME280;66809;52.974;-2.514;2023-03-13T03:03:41;978.902120619494;;;9.268023376561901;49.062746636095305
46382;BME280;66809;52.974;-2.514;2023-03-13T03:05:41;978.8773648303428;;;9.274889760265653;49.032565170854504
46382;BME280;66809;52.974;-2.514;2023-03-13T03:07:40;978.851229781525;;;9.284409161549686;48.99260307809828
46382;BME280;66809;52.974;-2.514;2023-03-13T03:09:40;978.8240691368484;;;9.283428129489433;48.95959801931537
46382;BME280;66809;52.974;-2.514;2023-03-13T03:11:40;978.7978477678334;;;9.281321238103027;48.92569749562494
46382;BME280;66809;52.974;-2.514;2023-03-13T03:13:41;978.7707618486496;;;9.283909036439294;48.89345167046919
46382;BME280;66809;52.974;-2.514;2023-03-13T03:15:40;978.7459723353726;;;9.289922831572682;48.86216059276944
46382;BME280;66809;52.974;-2.514;2023-03-13T03:17:40;978.7205727758159;;;9.288353668957644;48.81966629380247
46382;BME280;66809;52.974;-2.514;2023-03-13T03:19:41;978.6931543551457;;;9.2937897344286;48.765384496702914
46382;BME280;66809;52.974;-2.514;2023-03-13T03:21:40;978.6716398377762;;;9.298394006905937;48.705526478317765
46382;BME280;66809;52.974;-2.514;2023-03-13T03:23:40;978.6468914034664;;;9.3043762010078;48.63894941935543
46382;BME280;66809;52.974;-2.514;2023-03-13T03:25:41;978.6217160993667;;;9.306478689542802;48.55835086794914
46382;BME280;66809;52.974;-2.514;2023-03-13T03:27:41;978.6006517409327;;;9.314628583168261;48.475715400245456
46382;BME280;66809;52.974;-2.514;2023-03-13T03:29:40;978.5811038497598;;;9.326901835572725;48.39481638571067
46382;BME280;66809;52.974;-2.514;2023-03-13T03:31:40;978.5617905673786;;;9.332732792324935;48.295060530095185
46382;BME280;66809;52.974;-2.514;2023-03-13T03:33:42;978.5428048388029;;;9.336034760164322;48.1985998872337
46382;BME280;66809;52.974;-2.514;2023-03-13T03:35:40;978.5263459349306;;;9.34527691174524;48.09604223074787
46382;BME280;66809;52.974;-2.514;2023-03-13T03:37:40;978.508172390204;;;9.357936656731994;47.98409169999356
46382;BME280;66809;52.974;-2.514;2023-03-13T03:39:40;978.4871009363648;;;9.36292742035729;47.869858980623086
46382;BME280;66809;52.974;-2.514;2023-03-13T03:41:41;978.4631952825025;;;9.364221322211598;47.76329575602187
46382;BME280;66809;52.974;-2.514;2023-03-13T03:43:41;978.4344158503428;;;9.363818028005747;47.65778387927758
46382;BME280;66809;52.974;-2.514;2023-03-13T03:45:41;978.4033202227857;;;9.354025355496077;47.55002192330958
46382;BME280;66809;52.974;-2.514;2023-03-13T03:47:40;978.3728200034485;;;9.353496031557054;47.43980739133375
46382;BME280;66809;52.974;-2.514;2023-03-13T03:49:40;978.3446618145158;;;9.348162793188187;47.335555897304786
46382;BME280;66809;52.974;-2.514;2023-03-13T03:51:40;978.3158610690512;;;9.350128852426918;47.23211400219662
46382;BME280;66809;52.974;-2.514;2023-03-13T03:53:40;978.2817985102399;;;9.353590460471626;47.12644364999081
46382;BME280;66809;52.974;-2.514;2023-03-13T03:55:41;978.2458854968907;;;9.343176042836054;47.022679186292436
46382;BME280;66809;52.974;-2.514;2023-03-13T03:57:40;978.208930261437;;;9.346543221507087;46.922418446188466
46382;BME280;66809;52.974;-2.514;2023-03-13T03:59:40;978.169626834145;;;9.355321264851694;46.81205179647231
46382;BME280;66809;52.974;-2.514;2023-03-13T04:01:41;978.1278213422178;;;9.360606099052777;46.69770265939157
46382;BME280;66809;52.974;-2.514;2023-03-13T04:03:46;978.0881187026705;;;9.357661022162752;46.58405743831372
46382;BME280;66809;52.974;-2.514;2023-03-13T04:05:41;978.0510218216128;;;9.362045894581856;46.47463337415248
46382;BME280;66809;52.974;-2.514;2023-03-13T04:07:40;978.016208577556;;;9.375430221725527;46.372741544672266
46382;BME280;66809;52.974;-2.514;2023-03-13T04:09:41;977.9816453506451;;;9.391597601083248;46.26253234321559
46382;BME280;66809;52.974;-2.514;2023-03-13T04:11:42;977.9483939157245;;;9.413635950535998;46.153292470943335
46382;BME280;66809;52.974;-2.514;2023-03-13T04:13:40;977.915220635137;;;9.42692892234019;46.04601108827651
46382;BME280;66809;52.974;-2.514;2023-03-13T04:15:40;977.8753512178781;;;9.427855268465626;45.93801479734461
46382;BME280;66809;52.974;-2.514;2023-03-13T04:17:40;977.8373635205905;;;9.43335962489304;45.843527033593645
46382;BME280;66809;52.974;-2.514;2023-03-13T04:19:40;977.8000887989288;;;9.448136677475826;45.76128640176816
46382;BME280;66809;52.974;-2.514;2023-03-13T04:21:40;977.7593944506573;;;9.460367931574417;45.69445838302495
46382;BME280;66809;52.974;-2.514;2023-03-13T04:23:41;977.7233996220198;;;9.456462080990246;45.63504071019106
46382;BME280;66809;52.974;-2.514;2023-03-13T04:25:40;977.6917361616881;;;9.452827101513728;45.578593814544526
46382;BME280;66809;52.974;-2.514;2023-03-13T04:27:40;977.6564155048602;;;9.458592863443156;45.52369817396477
46382;BME280;66809;52.974;-2.514;2023-03-13T04:29:41;977.621517537617;;;9.467961059805619;45.477775319254995
46382;BME280;66809;52.974;-2.514;2023-03-13T04:31:40;977.5833458772163;;;9.464591992194267;45.447788354846516
46382;BME280;66809;52.974;-2.514;2023-03-13T04:33:41;977.5438147072232;;;9.473752150272462;45.41634749713291
46382;BME280;66809;52.974;-2.514;2023-03-13T04:35:40;977.5055206644143;;;9.483624468297332;45.39180569691536
46382;BME280;66809;52.974;-2.514;2023-03-13T04:37:40;977.4673010055061;;;9.486211330924501;45.375356415922326
46382;BME280;66809;52.974;-2.514;2023-03-13T04:39:41;977.43487146316;;;9.486784675796468;45.36543202142634
46382;BME280;66809;52.974;-2.514;2023-03-13T04:41:41;977.4068285547258;;;9.488297029670008;45.35216214434775
46382;BME280;66809;52.974;-2.514;2023-03-13T04:43:40;977.3813732237735;;;9.491916267716126;45.34453758806198
46382;BME280;66809;52.974;-2.514;2023-03-13T04:45:41;977.3583058498883;;;9.492536005859607;45.34060260250081
46382;BME280;66809;52.974;-2.514;2023-03-13T04:47:40;977.3328805102602;;;9.49298770439724;45.33432405115513
46382;BME280;66809;52.974;-2.514;2023-03-13T04:49:40;977.3084765352357;;;9.489803361491665;45.3219983960489
46382;BME280;66809;52.974;-2.514;2023-03-13T04:51:41;977.2852522965044;;;9.489232027955362;45.30119272983666
46382;BME280;66809;52.974;-2.514;2023-03-13T04:53:40;977.2638623265428;;;9.488072557430007;45.27335079649482
46382;BME280;66809;52.974;-2.514;2023-03-13T04:55:41;977.2410306393089;;;9.490137433246685;45.245696700437435
46382;BME280;66809;52.974;-2.514;2023-03-13T04:57:40;977.2214907840504;;;9.485045846229882;45.211386852294936
46382;BME280;66809;52.974;-2.514;2023-03-13T04:59:40;977.2058202050179;;;9.478013405124527;45.17071388960206
46382;BME280;66809;52.974;-2.514;2023-03-13T05:01:42;977.1887454191329;;;9.470533660507323;45.13304383717357
46382;BME280;66809;52.974;-2.514;2023-03-13T05:03:41;977.1735927767331;;;9.463967737812096;45.09604178651103
46382;BME280;66809;52.974;-2.514;2023-03-13T05:05:40;977.1556775441346;;;9.456892243909937;45.05785178116453
46382;BME280;66809;52.974;-2.514;2023-03-13T05:07:40;977.1375862655018;;;9.437836603231935;45.008422623063375
46382;BME280;66809;52.974;-2.514;2023-03-13T05:09:41;977.1198219664117;;;9.418073193730834;44.961892261524234
46382;BME280;66809;52.974;-2.514;2023-03-13T05:11:40;977.0989650387411;;;9.392697282377258;44.913483278120374
46382;BME280;66809;52.974;-2.514;2023-03-13T05:13:41;977.0784564715818;;;9.371960193255813;44.87189835614717
46382;BME280;66809;52.974;-2.514;2023-03-13T05:15:40;977.0611922662289;;;9.361119557264592;44.83714753660028
46382;BME280;66809;52.974;-2.514;2023-03-13T05:17:41;977.0441847344108;;;9.34417816252887;44.80659613774188
46382;BME280;66809;52.974;-2.514;2023-03-13T05:19:42;977.0326034244628;;;9.319862899384733;44.77179176062855
46382;BME280;66809;52.974;-2.514;2023-03-13T05:21:42;977.0157286121723;;;9.298563942248217;44.72547921724504
46382;BME280;66809;52.974;-2.514;2023-03-13T05:23:56;976.9975722269144;;;9.288741004605855;44.67780270961782
46382;BME280;66809;52.974;-2.514;2023-03-13T05:26:01;976.9787715831131;;;9.286469412730774;44.634140832315225
46382;BME280;66809;52.974;-2.514;2023-03-13T05:27:43;976.9577704725857;;;9.276670712126183;44.58238415079139
46382;BME280;66809;52.974;-2.514;2023-03-13T05:29:40;976.9294078251874;;;9.251686332524589;44.52165983197077
46382;BME280;66809;52.974;-2.514;2023-03-13T05:31:41;976.9030508204781;;;9.257407949560386;44.44812462686196
46382;BME280;66809;52.974;-2.514;2023-03-13T05:33:40;976.8740119917691;;;9.250892404144935;44.37134793083821
46382;BME280;66809;52.974;-2.514;2023-03-13T05:35:40;976.8478582244505;;;9.233962441449336;44.30023422068021
46382;BME280;66809;52.974;-2.514;2023-03-13T05:37:40;976.8250982508896;;;9.229138652191985;44.2346987298584
46382;BME280;66809;52.974;-2.514;2023-03-13T05:39:41;976.795076179461;;;9.2189030603077;44.16106728603295
46382;BME280;66809;52.974;-2.514;2023-03-13T05:41:40;976.7666369654586;;;9.202326012399961;44.09242420501885
46382;BME280;66809;52.974;-2.514;2023-03-13T05:43:41;976.7375920606994;;;9.188906110520934;44.02270793927669
46382;BME280;66809;52.974;-2.514;2023-03-13T05:45:40;976.7044741794994;;;9.177477471810867;43.948416084383005
46382;BME280;66809;52.974;-2.514;2023-03-13T05:47:40;976.6716537840497;;;9.16183305231693;43.88320621888143
46382;BME280;66809;52.974;-2.514;2023-03-13T05:49:40;976.6409011913973;;;9.14992550257835;43.82375313168239
46382;BME280;66809;52.974;-2.514;2023-03-13T05:51:41;976.6065123881648;;;9.13454794429833;43.762132281248704
46382;BME280;66809;52.974;-2.514;2023-03-13T05:53:40;976.5709448995108;;;9.119313221008031;43.71389151717783
46382;BME280;66809;52.974;-2.514;2023-03-13T05:55:42;976.5389991754462;;;9.114425708303894;43.6878193846045
46382;BME280;66809;52.974;-2.514;2023-03-13T05:57:43;976.5057168906247;;;9.094546726395361;43.66867851805454
46382;BME280;66809;52.974;-2.514;2023-03-13T05:59:40;976.4771828188642;;;9.076060479516222;43.68563958828019
46382;BME280;66809;52.974;-2.514;2023-03-13T06:01:40;976.4524827296511;;;9.051520436919072;43.72007116872107
46382;BME280;66809;52.974;-2.514;2023-03-13T06:03:41;976.4283537255461;;;9.037527290286873;43.77396823501256
46382;BME280;66809;52.974;-2.514;2023-03-13T06:05:40;976.4102985429698;;;9.012855329190723;43.8534091445706
46382;BME280;66809;52.974;-2.514;2023-03-13T06:07:40;976.3888235209613;;;8.985210110691753;43.96193190402547
46382;BME280;66809;52.974;-2.514;2023-03-13T06:09:41;976.3691836030879;;;8.957422087537282;44.07890870592096
46382;BME280;66809;52.974;-2.514;2023-03-13T06:11:40;976.3493242075181;;;8.928179553561998;44.19962459048546
46382;BME280;66809;52.974;-2.514;2023-03-13T06:13:40;976.3292735671631;;;8.907676983513113;44.31436286986443
46382;BME280;66809;52.974;-2.514;2023-03-13T06:15:40;976.3105301188225;;;8.88116606198057;44.43512549957875
46382;BME280;66809;52.974;-2.514;2023-03-13T06:17:40;976.288025043826;;;8.85926778494663;44.54675965591146
46382;BME280;66809;52.974;-2.514;2023-03-13T06:19:40;976.2606882842161;;;8.832486970947167;44.659315348714486
46382;BME280;66809;52.974;-2.514;2023-03-13T06:21:41;976.2370846947595;;;8.811730297508793;44.76551392629448
46382;BME280;66809;52.974;-2.514;2023-03-13T06:23:41;976.2083571900492;;;8.777828594864568;44.8709990268815
46382;BME280;66809;52.974;-2.514;2023-03-13T06:25:40;976.1808246846037;;;8.752612452010352;44.96054871350025
46382;BME280;66809;52.974;-2.514;2023-03-13T06:27:40;976.1547338667625;;;8.72970680867769;45.05053718865995
46382;BME280;66809;52.974;-2.514;2023-03-13T06:29:40;976.1368197141244;;;8.719132171770502;45.13614581514648
46382;BME280;66809;52.974;-2.514;2023-03-13T06:31:41;976.1187233161743;;;8.696260096564314;45.22620066557757
46382;BME280;66809;52.974;-2.514;2023-03-13T06:33:40;976.1047437995007;;;8.684377761181189;45.312512324064
46382;BME280;66809;52.974;-2.514;2023-03-13T06:35:41;976.0915549238488;;;8.668078003257042;45.39423064259465
46382;BME280;66809;52.974;-2.514;2023-03-13T06:37:40;976.0778162102404;;;8.653651873276743;45.463276171082576
46382;BME280;66809;52.974;-2.514;2023-03-13T06:39:41;976.0712994145364;;;8.635600095198164;45.53694486604431
46382;BME280;66809;52.974;-2.514;2023-03-13T06:41:41;976.0602256866928;;;8.635885761127374;45.60137889833109
46382;BME280;66809;52.974;-2.514;2023-03-13T06:43:41;976.0483423606682;;;8.632612989895149;45.664473303786195
46382;BME280;66809;52.974;-2.514;2023-03-13T06:45:40;976.0403160033283;;;8.640275554802079;45.72367446635235
46382;BME280;66809;52.974;-2.514;2023-03-13T06:47:40;976.0364576440245;;;8.644997441833118;45.77134054112868
46382;BME280;66809;52.974;-2.514;2023-03-13T06:49:40;976.0301352080477;;;8.642638489553185;45.81440177525499
46382;BME280;66809;52.974;-2.514;2023-03-13T06:51:40;976.031980358369;;;8.636885157741773;45.87491385774215
46382;BME280;66809;52.974;-2.514;2023-03-13T06:53:40;976.0336535605313;;;8.621421189171476;45.94065849765634
46382;BME280;66809;52.974;-2.514;2023-03-13T06:55:40;976.0283316068554;;;8.608007290906762;45.98122909938532
46382;BME280;66809;52.974;-2.514;2023-03-13T06:57:41;976.0216669733147;;;8.610467070360507;46.02609752542962
46382;BME280;66809;52.974;-2.514;2023-03-13T06:59:40;976.0063352982302;;;8.606871053450208;46.05163256403596
46382;BME280;66809;52.974;-2.514;2023-03-13T07:01:40;975.9857909049381;;;8.598334720590191;46.06668714350913
46382;BME280;66809;52.974;-2.514;2023-03-13T07:03:41;975.9664159879825;;;8.593203131702062;46.070097399780394
46382;BME280;66809;52.974;-2.514;2023-03-13T07:05:41;975.941541271329;;;8.594332916350746;46.042118271851145
46382;BME280;66809;52.974;-2.514;2023-03-13T07:07:41;975.9246318283684;;;8.597158865305413;45.9948213652042
46382;BME280;66809;52.974;-2.514;2023-03-13T07:09:40;975.9009783923844;;;8.602387744642572;45.93703079374258
46382;BME280;66809;52.974;-2.514;2023-03-13T07:11:40;975.8784574357221;;;8.612389899421789;45.88000706821499
46382;BME280;66809;52.974;-2.514;2023-03-13T07:13:41;975.8600492323486;;;8.61345884061935;45.82125207004016
46382;BME280;66809;52.974;-2.514;2023-03-13T07:15:40;975.84294297122;;;8.623527209459098;45.75610075136445
46382;BME280;66809;52.974;-2.514;2023-03-13T07:17:40;975.826498173053;;;8.641172132166513;45.69807374380275